ESGR/KVB METAR and TAF weather

Enter ICAO airport designator
Station Type Date Time Source
ESGR METAR 2020/09/20 10:20 UTC NOAA

ESGR 201020Z AUTO 24005KT 200V280 9999 OVC017/// 14/11 Q1021


Station Type Date Time Source
ESGR Decoded METAR 2020/09/20 10:20 UTC NOAA

Skovde Flygplats, Sweden (ESGR) 58-27N 013-58E 105M
Sep 20, 2020 - 06:20 AM EDT / 2020.09.20 1020 UTC
Wind: from the WSW (240 degrees) at 6 MPH (5 KT) (direction variable):0
Visibility: greater than 7 mile(s):0
Sky conditions: overcast
Temperature: 57 F (14 C)
Dew Point: 51 F (11 C)
Relative Humidity: 82%
Pressure (altimeter): 30.15 in. Hg (1021 hPa)
ob: ESGR 201020Z AUTO 24005KT 200V280 9999 OVC017/// 14/11 Q1021
cycle: 10

Station Type Date Time Source
ESGR TAF 2009/06/28 04:50 UTC NOAA

METAR ESGR 280450Z AUTO VRB02KT 9999NDV NCD 17/12 Q1020

Example: see airport list